createdAt,value
2022-12-03T00:03:03.245Z,24.80
2022-12-03T00:08:06.574Z,24.70
2022-12-03T00:13:09.433Z,24.60
2022-12-03T00:18:13.684Z,24.50
2022-12-03T00:23:16.505Z,24.50
2022-12-03T00:28:19.314Z,24.40
2022-12-03T00:33:23.732Z,24.30
2022-12-03T00:38:26.595Z,24.20
2022-12-03T00:43:29.450Z,24.10
2022-12-03T00:48:33.618Z,24.00
2022-12-03T00:53:36.630Z,24.00
2022-12-03T00:58:39.487Z,23.80
2022-12-03T01:03:43.683Z,23.80
2022-12-03T01:08:46.536Z,23.70
2022-12-03T01:13:49.421Z,23.70
2022-12-03T01:18:53.651Z,23.50
2022-12-03T01:23:56.464Z,23.40
2022-12-03T01:28:59.319Z,23.40
2022-12-03T01:34:03.541Z,23.30
2022-12-03T01:39:06.423Z,23.30
2022-12-03T01:44:18.110Z,23.20
2022-12-03T01:49:24.818Z,23.10
2022-12-03T01:54:30.797Z,23.10
2022-12-03T01:59:37.247Z,23.00
2022-12-03T02:04:41.748Z,22.90
2022-12-03T02:09:44.651Z,22.80
2022-12-03T02:14:48.160Z,22.80
2022-12-03T02:19:53.217Z,22.80
2022-12-03T02:25:07.421Z,22.70
2022-12-03T02:30:13.019Z,22.60
2022-12-03T02:35:17.683Z,22.60
2022-12-03T02:40:23.660Z,22.50
2022-12-03T02:45:29.342Z,22.40
2022-12-03T02:50:36.855Z,22.40
2022-12-03T02:55:41.899Z,22.30
2022-12-03T03:00:46.009Z,22.30
2022-12-03T03:05:50.176Z,22.20
2022-12-03T03:10:54.929Z,22.10
2022-12-03T03:15:58.273Z,22.10
2022-12-03T03:21:01.416Z,22.10
2022-12-03T03:26:07.740Z,22.00
2022-12-03T03:31:13.588Z,21.90
2022-12-03T03:36:17.037Z,21.90
2022-12-03T03:41:22.556Z,21.80
2022-12-03T03:46:25.608Z,21.80
2022-12-03T03:51:28.626Z,21.70
2022-12-03T03:56:34.525Z,21.70
2022-12-03T04:01:37.885Z,21.60
2022-12-03T04:06:40.780Z,21.60
2022-12-03T04:12:02.705Z,21.50
2022-12-03T04:17:05.568Z,21.50
2022-12-03T04:22:25.942Z,21.40
2022-12-03T04:27:47.469Z,21.40
2022-12-03T04:33:07.716Z,21.40
2022-12-03T04:38:10.745Z,21.30
2022-12-03T04:43:14.960Z,21.20
2022-12-03T04:48:18.163Z,21.20
2022-12-03T04:53:21.074Z,21.20
2022-12-03T04:58:25.304Z,21.10
2022-12-03T05:03:28.259Z,21.10
2022-12-03T05:08:31.128Z,21.00
2022-12-03T05:13:35.382Z,21.00
2022-12-03T05:18:38.570Z,21.00
2022-12-03T05:23:41.497Z,20.90
2022-12-03T05:28:45.637Z,20.90
2022-12-03T05:33:48.491Z,21.00
2022-12-03T05:38:51.300Z,20.90
2022-12-03T05:43:55.846Z,20.90
2022-12-03T05:48:58.664Z,20.80
2022-12-03T05:54:01.475Z,20.80
2022-12-03T05:59:05.646Z,20.80
2022-12-03T06:04:08.560Z,20.70
2022-12-03T06:09:11.468Z,20.80
2022-12-03T06:14:15.743Z,20.70
2022-12-03T06:19:18.942Z,20.70
2022-12-03T06:24:21.885Z,20.60
2022-12-03T06:29:26.048Z,20.60
2022-12-03T06:34:28.878Z,20.60
2022-12-03T06:39:31.693Z,20.60
2022-12-03T06:44:35.963Z,20.60
2022-12-03T06:49:38.826Z,20.60
2022-12-03T06:54:41.654Z,20.60
2022-12-03T06:59:45.902Z,20.80
2022-12-03T07:04:48.846Z,20.90
2022-12-03T07:09:52.030Z,21.10
2022-12-03T07:14:56.571Z,21.10
2022-12-03T07:19:59.623Z,21.20
2022-12-03T07:25:02.445Z,21.30
2022-12-03T07:30:08.410Z,21.30
2022-12-03T07:35:11.307Z,21.30
2022-12-03T07:40:14.720Z,21.30
2022-12-03T07:45:19.068Z,21.20
2022-12-03T07:50:21.910Z,21.30
2022-12-03T07:55:25.258Z,21.40
2022-12-03T08:00:29.521Z,21.40
2022-12-03T08:05:32.348Z,21.50
2022-12-03T08:10:35.197Z,21.50
2022-12-03T08:15:39.823Z,21.50
2022-12-03T08:20:45.287Z,21.50
2022-12-03T08:25:48.767Z,21.50
2022-12-03T08:31:01.130Z,21.40
2022-12-03T08:36:13.454Z,21.40
2022-12-03T08:41:37.251Z,21.30
2022-12-03T08:46:41.448Z,21.30
2022-12-03T08:51:44.350Z,21.30
2022-12-03T08:56:47.342Z,21.50
2022-12-03T09:01:53.353Z,21.70
2022-12-03T09:06:57.018Z,22.00
2022-12-03T09:12:02.046Z,22.10
2022-12-03T09:17:06.747Z,22.50
2022-12-03T09:22:09.689Z,23.00
2022-12-03T09:27:12.536Z,23.40
2022-12-03T09:32:18.487Z,23.90
2022-12-03T09:37:22.303Z,24.40
2022-12-03T09:42:26.208Z,24.80
2022-12-03T09:47:31.823Z,24.90
2022-12-03T09:52:35.852Z,25.30
2022-12-03T09:57:38.896Z,25.30
2022-12-03T10:02:43.462Z,25.30
2022-12-03T10:07:46.521Z,25.20
2022-12-03T10:12:50.183Z,25.20
2022-12-03T10:17:56.114Z,25.30
2022-12-03T10:22:59.223Z,25.30
2022-12-03T10:28:03.826Z,25.40
2022-12-03T10:33:18.799Z,25.40
2022-12-03T10:38:23.225Z,25.40
2022-12-03T10:43:26.880Z,25.40
2022-12-03T10:48:31.272Z,25.40
2022-12-03T10:53:35.786Z,25.40
2022-12-03T10:58:40.567Z,25.50
2022-12-03T11:03:45.790Z,25.50
2022-12-03T11:08:56.563Z,25.50
2022-12-03T11:14:02.512Z,25.50
2022-12-03T11:19:16.085Z,25.40
2022-12-03T11:24:21.762Z,25.40
2022-12-03T11:29:50.620Z,25.30
2022-12-03T11:34:54.960Z,25.20
2022-12-03T11:40:39.395Z,25.20
2022-12-03T11:45:42.756Z,25.10
2022-12-03T11:50:52.513Z,25.00
2022-12-03T11:56:08.255Z,25.00
2022-12-03T12:01:11.252Z,25.00
2022-12-03T12:06:17.417Z,25.10
2022-12-03T12:11:22.230Z,25.10
2022-12-03T12:16:51.191Z,25.00
2022-12-03T12:21:56.000Z,25.00
2022-12-03T12:26:59.927Z,25.00
2022-12-03T12:32:13.061Z,25.00
2022-12-03T12:37:21.453Z,25.00
2022-12-03T12:42:35.560Z,25.00
2022-12-03T12:47:38.622Z,25.00
2022-12-03T12:52:50.952Z,24.90
2022-12-03T12:57:54.027Z,24.80
2022-12-03T13:03:00.707Z,24.80
2022-12-03T13:08:15.134Z,24.70
2022-12-03T13:13:23.723Z,24.70
2022-12-03T13:18:34.527Z,24.60
2022-12-03T13:23:38.847Z,24.60
2022-12-03T13:28:42.775Z,24.50
2022-12-03T13:33:45.624Z,24.50
2022-12-03T13:38:50.390Z,24.50
2022-12-03T13:43:54.078Z,24.40
2022-12-03T13:49:00.407Z,24.40
2022-12-03T13:54:14.536Z,24.30
2022-12-03T13:59:24.491Z,24.30
2022-12-03T14:04:29.006Z,24.20
2022-12-03T14:09:33.288Z,24.10
2022-12-03T14:14:36.125Z,24.00
2022-12-03T14:19:38.973Z,24.10
2022-12-03T14:24:43.129Z,24.20
2022-12-03T14:29:46.072Z,24.10
2022-12-03T14:34:48.923Z,24.00
2022-12-03T14:39:53.496Z,24.00
2022-12-03T14:44:56.794Z,23.90
2022-12-03T14:49:59.697Z,23.80
2022-12-03T14:55:03.946Z,23.70
2022-12-03T15:00:08.000Z,23.70
2022-12-03T15:05:11.002Z,23.80
2022-12-03T15:10:16.251Z,23.80
2022-12-03T15:15:19.062Z,23.70
2022-12-03T15:20:21.917Z,23.80
2022-12-03T15:25:26.084Z,23.80
2022-12-03T15:30:28.928Z,23.80
2022-12-03T15:35:31.945Z,23.90
2022-12-03T15:40:38.032Z,24.00
2022-12-03T15:45:41.392Z,24.00
2022-12-03T15:50:44.307Z,24.10
2022-12-03T15:55:48.506Z,24.10
2022-12-03T16:00:51.363Z,24.10
2022-12-03T16:05:54.267Z,24.20
2022-12-03T16:10:58.586Z,24.30
2022-12-03T16:16:01.494Z,24.60
2022-12-03T16:21:04.456Z,24.80
2022-12-03T16:26:08.955Z,24.90
2022-12-03T16:31:11.863Z,25.10
2022-12-03T16:36:14.835Z,25.20
2022-12-03T16:41:19.699Z,25.20
2022-12-03T16:46:26.109Z,25.30
2022-12-03T16:51:30.171Z,25.20
2022-12-03T16:56:34.353Z,25.20
2022-12-03T17:01:37.328Z,25.20
2022-12-03T17:06:40.248Z,25.40
2022-12-03T17:11:44.383Z,25.50
2022-12-03T17:16:47.399Z,25.80
2022-12-03T17:21:50.268Z,25.90
2022-12-03T17:26:54.491Z,26.10
2022-12-03T17:31:57.365Z,26.30
2022-12-03T17:37:00.262Z,26.40
2022-12-03T17:42:04.740Z,26.50
2022-12-03T17:47:07.558Z,26.50
2022-12-03T17:52:10.378Z,26.50
2022-12-03T17:57:14.788Z,26.50
2022-12-03T18:02:17.630Z,26.50
2022-12-03T18:07:20.467Z,26.40
2022-12-03T18:12:24.730Z,26.30
2022-12-03T18:17:27.547Z,26.20
2022-12-03T18:22:31.794Z,26.10
2022-12-03T18:27:36.164Z,26.00
2022-12-03T18:32:39.003Z,25.90
2022-12-03T18:37:41.896Z,25.80
2022-12-03T18:42:46.065Z,25.70
2022-12-03T18:47:49.008Z,25.80
2022-12-03T18:52:51.946Z,25.90
2022-12-03T18:57:56.104Z,26.00
2022-12-03T19:03:03.840Z,26.20
2022-12-03T19:08:14.321Z,26.30
2022-12-03T19:13:18.543Z,26.30
2022-12-03T19:18:21.586Z,26.30
2022-12-03T19:23:24.520Z,26.40
2022-12-03T19:28:30.076Z,26.30
2022-12-03T19:33:33.514Z,26.30
2022-12-03T19:38:36.501Z,26.20
2022-12-03T19:43:41.171Z,26.20
2022-12-03T19:48:45.392Z,26.10
2022-12-03T19:53:48.255Z,26.10
2022-12-03T19:58:56.112Z,26.00
2022-12-03T20:04:01.578Z,25.90
2022-12-03T20:09:06.887Z,25.90
2022-12-03T20:14:14.677Z,25.80
2022-12-03T20:19:18.448Z,25.80
2022-12-03T20:24:21.332Z,25.80
2022-12-03T20:29:25.547Z,25.80
2022-12-03T20:34:28.378Z,25.70
2022-12-03T20:39:31.271Z,25.70
2022-12-03T20:44:35.464Z,25.60
2022-12-03T20:49:40.152Z,25.60
2022-12-03T20:54:43.148Z,25.60
2022-12-03T20:59:47.438Z,25.50
2022-12-03T21:04:50.311Z,25.40
2022-12-03T21:09:53.622Z,25.40
2022-12-03T21:14:58.155Z,25.40
2022-12-03T21:20:01.549Z,25.40
2022-12-03T21:25:04.795Z,25.40
2022-12-03T21:30:10.019Z,25.30
2022-12-03T21:35:13.111Z,25.20
2022-12-03T21:40:16.163Z,25.20
2022-12-03T21:45:20.630Z,25.10
2022-12-03T21:50:23.450Z,25.10
2022-12-03T21:55:26.426Z,25.00
2022-12-03T22:00:30.707Z,25.00
2022-12-03T22:05:33.607Z,24.90
2022-12-03T22:10:37.014Z,24.80
2022-12-03T22:15:41.259Z,24.80
2022-12-03T22:20:44.271Z,24.80
2022-12-03T22:25:47.111Z,24.70
2022-12-03T22:30:51.295Z,24.60
2022-12-03T22:35:58.269Z,24.60
2022-12-03T22:41:05.096Z,24.50
2022-12-03T22:46:10.968Z,24.50
2022-12-03T22:51:15.643Z,24.40
2022-12-03T22:56:18.508Z,24.40
2022-12-03T23:01:28.206Z,24.30
2022-12-03T23:06:32.530Z,24.20
2022-12-03T23:11:35.852Z,24.20
2022-12-03T23:16:41.021Z,24.00
2022-12-03T23:21:43.884Z,24.00
2022-12-03T23:26:46.739Z,23.90
2022-12-03T23:31:51.032Z,23.90
2022-12-03T23:36:53.919Z,23.80
2022-12-03T23:41:56.862Z,23.80
2022-12-03T23:47:02.294Z,23.80
2022-12-03T23:52:05.206Z,23.70
2022-12-03T23:57:08.043Z,23.60
